Time;durP1;ratioP1;P1;durP2;ratioP2;P2;SDS_P1;SDS_P2;PMS_P1;PMS_P2;Temp;Humidity;BMP_temperature;BMP_pressure;BME280_temperature;BME280_humidity;BME280_pressure;Samples;Min_cycle;Max_cycle;Signal;HPM_P1;HPM_P2
2021/05/26 00:01:04;;;;;;;5.03;2.92;;;;;;;17.59;64.03;100681.37;1740260;80;21559;-70
2021/05/26 00:03:31;;;;;;;5.53;2.95;;;;;;;17.58;64.34;100685.52;1698853;82;21228;-69
2021/05/26 00:05:58;;;;;;;4.83;2.62;;;;;;;17.57;64.43;100689.20;1768992;80;21829;-70
2021/05/26 00:08:31;;;;;;;4.90;2.90;;;;;;;17.55;64.59;100689.36;1738710;80;21583;-70
2021/05/26 00:11:02;;;;;;;7.03;2.97;;;;;;;17.55;64.71;100699.14;1766465;80;21053;-70
2021/05/26 00:13:28;;;;;;;6.60;3.30;;;;;;;17.53;64.81;100699.80;1765386;80;21622;-71
2021/05/26 00:15:56;;;;;;;4.83;2.95;;;;;;;17.49;64.92;100706.45;1761734;80;21087;-70
2021/05/26 00:18:23;;;;;;;4.83;2.83;;;;;;;17.52;64.82;100709.62;1768386;80;21038;-71
2021/05/26 00:20:52;;;;;;;5.25;2.87;;;;;;;17.59;64.44;100703.98;1717301;82;21600;-75
2021/05/26 00:23:19;;;;;;;5.08;3.10;;;;;;;17.60;64.08;100701.67;1760104;80;22280;-71
2021/05/26 00:25:45;;;;;;;5.72;3.22;;;;;;;17.58;64.03;100704.97;1704641;83;21706;-70
2021/05/26 00:28:11;;;;;;;6.10;3.15;;;;;;;17.54;63.97;100707.63;1711569;82;21127;-68
2021/05/26 00:30:45;;;;;;;6.67;3.25;;;;;;;17.50;63.96;100700.12;1711679;80;21885;-68
2021/05/26 00:33:06;;;;;;;5.35;2.95;;;;;;;17.45;63.93;100697.46;1733833;80;21073;-68
2021/05/26 00:35:33;;;;;;;5.45;2.98;;;;;;;17.41;63.90;100701.92;1734658;81;21092;-72
2021/05/26 00:38:03;;;;;;;6.10;3.47;;;;;;;17.36;63.97;100709.05;1734740;80;21088;-70
2021/05/26 00:40:30;;;;;;;5.60;3.22;;;;;;;17.31;64.05;100706.03;1734684;80;21732;-71
2021/05/26 00:42:56;;;;;;;5.83;3.55;;;;;;;17.27;64.11;100707.34;1732270;80;21105;-68
2021/05/26 00:45:22;;;;;;;6.12;3.00;;;;;;;17.22;64.18;100705.16;1701834;83;21559;-69
2021/05/26 00:47:50;;;;;;;5.53;2.90;;;;;;;17.22;64.15;100701.17;1735953;80;21123;-70
2021/05/26 00:50:26;;;;;;;6.67;3.27;;;;;;;17.29;64.02;100706.69;1738614;81;21080;-69
2021/05/26 00:52:54;;;;;;;5.47;2.67;;;;;;;17.33;63.88;100703.21;1734706;81;21129;-71
2021/05/26 00:55:22;;;;;;;5.53;3.10;;;;;;;17.33;63.76;100700.08;1713619;82;21049;-68
2021/05/26 00:57:49;;;;;;;6.03;3.27;;;;;;;17.33;63.83;100703.21;1739675;80;21128;-71
2021/05/26 01:00:20;;;;;;;6.40;3.65;;;;;;;17.34;63.80;100695.58;1663603;83;21666;-69
2021/05/26 01:02:51;;;;;;;6.08;3.30;;;;;;;17.32;63.68;100690.42;1704875;82;21080;-69
2021/05/26 01:05:23;;;;;;;5.65;3.27;;;;;;;17.27;63.68;100692.22;1712241;80;21099;-76
2021/05/26 01:07:51;;;;;;;5.90;3.15;;;;;;;17.26;63.62;100690.57;1704009;82;21108;-69
2021/05/26 01:10:28;;;;;;;5.42;2.90;;;;;;;17.22;63.64;100691.04;1734355;81;21070;-69
2021/05/26 01:13:03;;;;;;;5.37;3.05;;;;;;;17.18;63.73;100696.32;1731234;80;21653;-70
2021/05/26 01:15:30;;;;;;;5.40;2.70;;;;;;;17.12;63.82;100699.13;1734767;80;21065;-69
2021/05/26 01:17:57;;;;;;;5.25;2.77;;;;;;;17.11;63.89;100694.78;1736099;80;21129;-72
2021/05/26 01:20:28;;;;;;;6.12;2.58;;;;;;;17.15;63.83;100688.18;1703309;83;21084;-68
2021/05/26 01:22:57;;;;;;;4.87;2.60;;;;;;;17.19;63.85;100685.53;1711826;81;21113;-73
2021/05/26 01:25:27;;;;;;;5.10;2.80;;;;;;;17.21;63.79;100680.87;1736793;80;21112;-72
2021/05/26 01:27:59;;;;;;;6.80;2.77;;;;;;;17.20;63.76;100677.90;1738483;80;21065;-70
2021/05/26 01:30:27;;;;;;;5.83;2.87;;;;;;;17.18;63.80;100674.58;1763816;80;21471;-70
2021/05/26 01:32:54;;;;;;;4.67;2.70;;;;;;;17.17;63.83;100678.72;1754610;80;21583;-68
2021/05/26 01:35:22;;;;;;;7.67;2.80;;;;;;;17.16;63.89;100669.88;1757671;80;21091;-70
2021/05/26 01:37:49;;;;;;;5.47;2.70;;;;;;;17.15;63.88;100670.89;1759111;80;21519;-69
2021/05/26 01:40:18;;;;;;;5.47;2.80;;;;;;;17.14;63.91;100669.22;1770774;80;21098;-68
2021/05/26 01:42:45;;;;;;;6.87;3.08;;;;;;;17.13;63.99;100669.38;1734525;80;21052;-74
2021/05/26 01:45:16;;;;;;;5.15;2.20;;;;;;;17.14;64.00;100665.23;1762556;80;21733;-74
2021/05/26 01:47:44;;;;;;;5.35;2.62;;;;;;;17.21;63.97;100668.91;1770344;80;21104;-74
2021/05/26 01:50:20;;;;;;;6.35;2.85;;;;;;;17.27;63.91;100673.60;1740700;80;21074;-69
2021/05/26 01:53:02;;;;;;;5.42;2.70;;;;;;;17.29;63.88;100667.30;1762381;80;21669;-72
2021/05/26 01:55:28;;;;;;;5.00;2.50;;;;;;;17.26;64.08;100667.11;1699346;83;21138;-69
2021/05/26 01:57:59;;;;;;;6.60;2.72;;;;;;;17.22;64.16;100666.59;1758049;80;21085;-71
2021/05/26 02:00:27;;;;;;;4.50;2.15;;;;;;;17.20;64.27;100661.95;1755355;80;21084;-70
2021/05/26 02:02:53;;;;;;;4.62;2.55;;;;;;;17.16;64.29;100660.58;1758530;79;21176;-69
2021/05/26 02:05:21;;;;;;;4.60;2.58;;;;;;;17.13;64.34;100667.57;1765094;80;21093;-68
2021/05/26 02:07:49;;;;;;;5.03;2.02;;;;;;;17.08;64.40;100667.22;1766473;80;21123;-70
2021/05/26 02:10:17;;;;;;;6.22;2.30;;;;;;;17.08;64.42;100665.38;1762248;80;21050;-70
2021/05/26 02:12:46;;;;;;;4.42;2.08;;;;;;;17.14;64.42;100662.57;1760943;80;21100;-70
2021/05/26 02:15:15;;;;;;;4.50;2.47;;;;;;;17.18;64.33;100657.29;1769958;80;21072;-72
2021/05/26 02:17:42;;;;;;;4.47;2.22;;;;;;;17.19;64.32;100658.94;1703577;82;21085;-68
2021/05/26 02:20:11;;;;;;;4.03;2.05;;;;;;;17.18;64.34;100659.09;1759865;80;21414;-73
2021/05/26 02:22:39;;;;;;;6.87;2.27;;;;;;;17.18;64.33;100655.11;1761278;80;21093;-70
2021/05/26 02:25:07;;;;;;;4.85;2.20;;;;;;;17.16;64.29;100649.12;1703941;82;21698;-72
2021/05/26 02:27:34;;;;;;;4.50;2.20;;;;;;;17.15;64.31;100654.13;1759135;80;21364;-69
2021/05/26 02:30:03;;;;;;;4.45;2.22;;;;;;;17.13;64.36;100656.94;1765068;80;21675;-69
2021/05/26 02:32:29;;;;;;;5.30;2.27;;;;;;;17.11;64.47;100646.93;1735294;80;21124;-70
2021/05/26 02:34:56;;;;;;;5.45;2.02;;;;;;;17.16;64.40;100664.56;1731961;80;21068;-72
2021/05/26 02:37:23;;;;;;;5.85;2.30;;;;;;;17.25;64.29;100657.48;1760852;80;21044;-69
2021/05/26 02:39:51;;;;;;;4.65;2.12;;;;;;;17.31;64.38;100654.67;1741496;80;21057;-68
2021/05/26 02:42:18;;;;;;;6.62;2.58;;;;;;;17.33;64.49;100662.84;1774394;80;21575;-69
2021/05/26 02:44:44;;;;;;;5.62;2.35;;;;;;;17.34;64.62;100661.83;1733563;80;21588;-68
2021/05/26 02:47:11;;;;;;;4.80;2.33;;;;;;;17.36;64.76;100663.83;1762342;80;21627;-69
2021/05/26 02:49:40;;;;;;;4.40;2.52;;;;;;;17.37;64.76;100662.02;1758936;79;21061;-70
2021/05/26 02:52:07;;;;;;;4.12;2.17;;;;;;;17.39;64.79;100666.67;1764851;80;21675;-71
2021/05/26 02:54:33;;;;;;;4.72;2.45;;;;;;;17.39;64.73;100669.34;1761270;79;21029;-68
2021/05/26 02:56:59;;;;;;;5.65;2.55;;;;;;;17.40;64.71;100669.66;1767452;79;21210;-71
2021/05/26 02:59:30;;;;;;;5.72;2.25;;;;;;;17.49;64.54;100667.37;1669148;83;21585;-70
2021/05/26 03:01:59;;;;;;;4.50;2.00;;;;;;;17.63;64.33;100670.76;1762996;79;21116;-69
2021/05/26 03:04:37;;;;;;;4.15;2.15;;;;;;;17.76;64.18;100669.45;1731435;80;21061;-68
2021/05/26 03:07:04;;;;;;;4.92;2.37;;;;;;;17.86;63.90;100675.97;1736119;79;21032;-70
2021/05/26 03:09:31;;;;;;;4.95;2.37;;;;;;;17.88;63.82;100673.48;1728894;82;21725;-69
2021/05/26 03:11:58;;;;;;;6.78;2.50;;;;;;;17.90;63.79;100672.82;1765509;80;21085;-72
2021/05/26 03:14:33;;;;;;;5.42;2.77;;;;;;;17.93;63.76;100673.83;1762973;79;21108;-77
2021/05/26 03:17:01;;;;;;;4.55;2.08;;;;;;;17.99;63.84;100677.17;1760044;80;21033;-70
2021/05/26 03:19:28;;;;;;;4.72;2.22;;;;;;;18.06;63.89;100681.35;1762614;79;21069;-69
2021/05/26 03:21:56;;;;;;;4.40;2.15;;;;;;;18.11;64.03;100676.36;1758955;80;21095;-69
2021/05/26 03:24:42;;;;;;;3.95;1.90;;;;;;;18.22;63.93;100679.19;1766282;79;21695;-70
2021/05/26 03:27:10;;;;;;;6.08;2.42;;;;;;;18.38;63.57;100679.20;1768850;79;21040;-73
2021/05/26 03:29:36;;;;;;;4.15;2.00;;;;;;;18.48;63.08;100672.88;1744703;80;21410;-69
2021/05/26 03:32:04;;;;;;;6.00;2.33;;;;;;;18.56;62.71;100677.70;1751036;80;21037;-70
2021/05/26 03:34:30;;;;;;;5.50;2.08;;;;;;;18.61;62.67;100673.20;1665212;83;21211;-69
2021/05/26 03:36:59;;;;;;;4.90;1.87;;;;;;;18.65;62.62;100669.70;1747989;81;21069;-69
2021/05/26 03:39:26;;;;;;;5.15;2.35;;;;;;;18.64;62.62;100666.18;1723248;81;21108;-70
2021/05/26 03:41:52;;;;;;;4.72;2.35;;;;;;;18.63;62.69;100666.38;1751124;80;21067;-69
2021/05/26 03:44:19;;;;;;;3.65;1.80;;;;;;;18.63;62.91;100672.53;1702225;83;21061;-76
2021/05/26 03:46:46;;;;;;;4.08;1.98;;;;;;;18.63;62.85;100666.38;1657619;84;21769;-72
2021/05/26 03:49:16;;;;;;;5.08;2.08;;;;;;;18.68;62.91;100670.70;1750644;80;21144;-72
2021/05/26 03:51:43;;;;;;;4.97;1.67;;;;;;;18.81;62.91;100675.01;1749259;81;21096;-76
2021/05/26 03:54:11;;;;;;;5.83;2.05;;;;;;;18.93;62.54;100672.84;1746277;80;21632;-71
2021/05/26 03:56:41;;;;;;;5.03;1.90;;;;;;;19.03;62.48;100668.16;1750330;80;21610;-69
2021/05/26 03:59:09;;;;;;;6.70;1.82;;;;;;;19.07;62.34;100666.80;1724124;80;22361;-75
2021/05/26 04:01:38;;;;;;;6.58;2.20;;;;;;;19.09;62.17;100662.11;1747167;80;21539;-73
2021/05/26 04:04:05;;;;;;;4.17;1.87;;;;;;;19.14;62.07;100665.60;1751601;80;21132;-73
2021/05/26 04:06:35;;;;;;;5.40;2.27;;;;;;;19.20;61.92;100678.74;1752076;80;21066;-78
2021/05/26 04:09:03;;;;;;;5.62;2.27;;;;;;;19.27;61.64;100673.07;1726971;81;21072;-71
2021/05/26 04:11:30;;;;;;;4.35;1.90;;;;;;;19.29;61.73;100681.21;1721365;81;21089;-73
2021/05/26 04:13:58;;;;;;;5.12;1.77;;;;;;;19.32;61.91;100684.05;1757901;80;21136;-71
2021/05/26 04:16:30;;;;;;;5.25;2.85;;;;;;;19.42;61.54;100696.69;1757578;81;21057;-70
2021/05/26 04:18:58;;;;;;;8.83;3.10;;;;;;;19.52;61.17;100702.30;1738774;81;21080;-72
2021/05/26 04:21:25;;;;;;;4.87;2.80;;;;;;;19.54;61.09;100716.33;1733365;81;21053;-74
2021/05/26 04:23:51;;;;;;;5.30;2.62;;;;;;;19.50;61.27;100715.81;1753724;81;21125;-77
2021/05/26 04:26:18;;;;;;;5.55;2.52;;;;;;;19.49;61.30;100725.67;1760592;80;21607;-72
2021/05/26 04:28:45;;;;;;;9.43;3.15;;;;;;;19.51;61.40;100734.02;1764565;80;21052;-71
2021/05/26 04:31:13;;;;;;;5.00;2.72;;;;;;;19.54;61.30;100731.01;1742236;80;21502;-72
2021/05/26 04:33:40;;;;;;;5.10;2.87;;;;;;;19.56;60.99;100729.81;1751929;80;21566;-74
2021/05/26 04:36:07;;;;;;;11.15;2.98;;;;;;;19.60;60.59;100726.29;1735162;80;21148;-73
2021/05/26 04:38:33;;;;;;;5.17;2.80;;;;;;;19.60;60.41;100719.61;1742381;80;21827;-73
2021/05/26 04:41:00;;;;;;;8.10;3.45;;;;;;;19.58;60.46;100722.97;1774254;79;21101;-70
2021/05/26 04:43:28;;;;;;;5.05;2.20;;;;;;;19.63;60.46;100725.95;1673544;83;21090;-70
2021/05/26 04:45:56;;;;;;;6.10;2.70;;;;;;;19.71;60.01;100719.75;1766956;80;21088;-74
2021/05/26 04:48:23;;;;;;;5.83;2.70;;;;;;;19.74;60.01;100715.40;1768859;80;22189;-71
2021/05/26 04:50:50;;;;;;;7.08;2.37;;;;;;;19.75;60.42;100716.56;1674252;83;21106;-72
2021/05/26 04:53:16;;;;;;;4.12;2.08;;;;;;;19.78;60.50;100722.89;1736675;80;21622;-73
2021/05/26 04:55:42;;;;;;;5.37;2.50;;;;;;;19.80;60.12;100722.24;1773264;79;21091;-72
2021/05/26 04:58:10;;;;;;;5.20;2.45;;;;;;;19.81;60.20;100721.22;1708628;82;21094;-73
2021/05/26 05:00:36;;;;;;;5.03;2.45;;;;;;;19.83;60.10;100717.86;1761232;79;21091;-74
2021/05/26 05:03:03;;;;;;;5.10;2.37;;;;;;;19.82;60.34;100722.89;1762821;79;21124;-72
2021/05/26 05:05:34;;;;;;;5.33;2.60;;;;;;;19.84;60.33;100717.38;1764002;80;21092;-76
2021/05/26 05:08:02;;;;;;;4.47;1.70;;;;;;;19.88;60.49;100720.01;1757208;80;21674;-74
2021/05/26 05:10:31;;;;;;;4.03;1.87;;;;;;;20.00;60.62;100709.76;1761535;79;20929;-75
2021/05/26 05:12:57;;;;;;;14.58;3.45;;;;;;;20.11;60.46;100712.03;1772001;79;21618;-71
2021/05/26 05:15:25;;;;;;;5.55;2.40;;;;;;;20.16;60.33;100712.84;1764384;80;21345;-73
2021/05/26 05:17:51;;;;;;;4.92;2.50;;;;;;;20.22;59.97;100721.46;1769693;79;21076;-71
2021/05/26 05:20:20;;;;;;;8.28;3.00;;;;;;;20.24;59.76;100727.48;1700654;82;21764;-71
2021/05/26 05:22:54;;;;;;;7.87;2.33;;;;;;;20.21;59.68;100730.50;1720775;80;20945;-73
2021/05/26 05:25:21;;;;;;;4.92;2.70;;;;;;;20.16;59.76;100735.03;1726077;82;22037;-73
2021/05/26 05:27:49;;;;;;;5.70;2.70;;;;;;;20.10;59.89;100737.58;1701595;82;21061;-72
2021/05/26 05:30:16;;;;;;;5.15;2.35;;;;;;;20.03;59.96;100742.80;1770035;79;20977;-72
2021/05/26 05:32:42;;;;;;;5.33;2.30;;;;;;;19.94;59.90;100738.49;1768641;79;21071;-74
2021/05/26 05:35:10;;;;;;;4.08;1.85;;;;;;;19.88;60.24;100748.56;1679815;82;21393;-74
2021/05/26 05:37:36;;;;;;;4.58;2.00;;;;;;;19.86;60.54;100745.55;1766985;80;21034;-71
2021/05/26 05:40:04;;;;;;;5.30;2.62;;;;;;;19.97;60.31;100740.82;1770781;80;21123;-74
2021/05/26 05:42:30;;;;;;;5.50;2.83;;;;;;;20.00;59.72;100736.47;1772204;79;21076;-71
2021/05/26 05:44:57;;;;;;;4.72;2.55;;;;;;;19.97;59.58;100736.33;1736986;80;21082;-73
2021/05/26 05:47:23;;;;;;;7.95;2.58;;;;;;;19.96;59.96;100737.84;1769201;79;21769;-68
2021/05/26 05:49:49;;;;;;;5.03;2.20;;;;;;;20.01;59.87;100736.30;1750176;80;21112;-71
2021/05/26 05:52:16;;;;;;;10.38;2.42;;;;;;;20.06;60.05;100738.45;1702433;82;22632;-74
2021/05/26 05:54:44;;;;;;;5.35;2.50;;;;;;;20.10;60.50;100738.41;1760944;79;21120;-73
2021/05/26 06:00:00;;;;;;;5.25;2.27;;;;;;;20.12;60.17;100732.89;1854417;74;23777;-79
2021/05/26 06:02:27;;;;;;;4.67;2.10;;;;;;;20.15;60.23;100738.70;1831679;76;21731;-73
2021/05/26 06:04:53;;;;;;;10.95;2.45;;;;;;;20.20;60.02;100740.34;1830885;76;20993;-80
2021/05/26 06:07:19;;;;;;;4.60;2.30;;;;;;;20.29;59.88;100746.97;1800062;77;20992;-72
2021/05/26 06:09:46;;;;;;;5.40;2.67;;;;;;;20.33;59.64;100745.11;1824256;76;21016;-73
2021/05/26 06:12:12;;;;;;;6.60;2.30;;;;;;;20.35;59.76;100754.28;1809792;77;21644;-78
2021/05/26 06:14:39;;;;;;;5.42;3.00;;;;;;;20.39;59.24;100758.25;1800106;77;21087;-75
2021/05/26 06:17:05;;;;;;;4.85;1.80;;;;;;;20.41;59.37;100746.38;1796026;77;21112;-76
2021/05/26 06:19:32;;;;;;;4.90;2.25;;;;;;;20.43;58.91;100747.55;1769374;79;21106;-79
2021/05/26 06:21:58;;;;;;;3.35;1.60;;;;;;;20.45;58.70;100753.53;1729972;80;20988;-75
2021/05/26 06:24:25;;;;;;;4.30;1.90;;;;;;;20.39;58.46;100757.77;1722334;81;21711;-78
2021/05/26 06:26:52;;;;;;;4.20;2.20;;;;;;;20.40;59.00;100762.59;1750313;80;21056;-77
2021/05/26 06:29:18;;;;;;;6.33;2.75;;;;;;;20.45;59.23;100762.89;1753976;79;21134;-79
2021/05/26 06:31:45;;;;;;;4.08;2.05;;;;;;;20.53;58.97;100756.15;1702047;81;21135;-81
2021/05/26 06:34:12;;;;;;;3.92;1.90;;;;;;;20.65;58.63;100749.91;1750732;79;21604;-81
2021/05/26 06:36:38;;;;;;;4.62;2.00;;;;;;;20.78;57.89;100740.77;1747675;79;21139;-73
2021/05/26 06:39:05;;;;;;;4.78;2.00;;;;;;;20.92;56.39;100733.77;1741731;79;21661;-76
2021/05/26 06:43:35;;;;;;;5.20;2.00;;;;;;;21.19;55.69;100742.20;1871885;74;22607;-72
2021/05/26 06:46:02;;;;;;;4.40;2.10;;;;;;;21.21;54.79;100749.52;1837343;76;21007;-74
2021/05/26 06:48:28;;;;;;;4.22;1.85;;;;;;;21.23;54.82;100746.18;1842153;75;21476;-73
2021/05/26 06:50:54;;;;;;;4.80;2.08;;;;;;;21.28;53.91;100749.63;1833001;77;21044;-73
2021/05/26 06:53:22;;;;;;;4.25;1.70;;;;;;;21.31;54.34;100754.09;1833805;76;21325;-78
2021/05/26 06:55:48;;;;;;;5.33;1.87;;;;;;;21.40;53.18;100752.18;1836934;77;20989;-75
2021/05/26 06:58:15;;;;;;;4.22;1.60;;;;;;;21.42;53.25;100760.03;1838935;77;21083;-72
2021/05/26 07:00:41;;;;;;;5.15;1.80;;;;;;;21.43;53.45;100760.33;1778678;79;21444;-71
2021/05/26 07:03:09;;;;;;;3.65;1.70;;;;;;;21.46;53.35;100761.31;1806431;78;21037;-72
2021/05/26 07:05:36;;;;;;;4.00;1.75;;;;;;;21.51;53.16;100753.58;1767248;78;21028;-72
2021/05/26 07:08:03;;;;;;;4.08;1.77;;;;;;;21.51;53.43;100759.75;1779882;78;21185;-76
2021/05/26 07:10:29;;;;;;;4.28;1.65;;;;;;;21.54;53.01;100759.91;1806107;78;21103;-72
2021/05/26 07:12:56;;;;;;;4.35;1.87;;;;;;;21.56;53.14;100759.72;1747625;79;21082;-78
2021/05/26 07:15:22;;;;;;;8.48;4.40;;;;;;;21.59;53.47;100765.53;1807701;77;21096;-69
2021/05/26 07:17:54;;;;;;;4.25;2.12;;;;;;;21.64;54.12;100772.50;1778368;77;21093;-70
2021/05/26 07:20:19;;;;;;;4.03;1.75;;;;;;;21.75;53.29;100775.72;1780470;79;21052;-74
2021/05/26 07:22:45;;;;;;;4.72;2.30;;;;;;;21.77;52.71;100772.33;1804265;78;21050;-72
2021/05/26 07:25:12;;;;;;;7.87;2.58;;;;;;;21.75;52.51;100789.11;1765329;78;21469;-73
2021/05/26 07:27:39;;;;;;;5.15;1.75;;;;;;;21.74;52.60;100792.79;1774853;78;22435;-72
2021/05/26 07:30:06;;;;;;;5.47;1.50;;;;;;;21.72;52.58;100797.02;1752113;79;21029;-74
2021/05/26 07:32:33;;;;;;;6.05;1.77;;;;;;;21.71;52.86;100800.70;1777817;79;21104;-75
2021/05/26 07:34:59;;;;;;;4.28;1.80;;;;;;;21.69;52.85;100794.19;1773306;79;21662;-74
2021/05/26 07:37:27;;;;;;;4.20;1.75;;;;;;;21.65;53.01;100802.29;1779682;78;21043;-72
2021/05/26 07:39:54;;;;;;;4.40;2.12;;;;;;;21.62;53.35;100803.14;1810575;78;21637;-71
2021/05/26 07:42:21;;;;;;;5.65;2.08;;;;;;;21.59;53.73;100812.91;1772097;78;21084;-71
2021/05/26 07:44:48;;;;;;;5.90;2.40;;;;;;;21.54;53.82;100802.74;1809864;78;21115;-73
2021/05/26 07:47:15;;;;;;;5.65;2.83;;;;;;;21.52;54.54;100806.95;1776075;78;21073;-76
2021/05/26 07:49:41;;;;;;;5.22;2.37;;;;;;;21.48;54.86;100810.98;1765141;80;21079;-73
2021/05/26 07:52:11;;;;;;;9.68;2.92;;;;;;;21.45;55.11;100805.14;1780742;78;21119;-73
2021/05/26 07:54:40;;;;;;;6.37;2.85;;;;;;;21.43;55.40;100803.98;1813479;77;21091;-71
2021/05/26 07:57:07;;;;;;;7.90;3.50;;;;;;;21.43;55.68;100803.16;1797389;77;21053;-71
2021/05/26 07:59:34;;;;;;;6.05;3.70;;;;;;;21.42;55.59;100801.52;1809714;78;22362;-73
2021/05/26 08:02:01;;;;;;;5.20;2.98;;;;;;;21.40;55.81;100802.19;1748303;78;21088;-71
2021/05/26 08:04:27;;;;;;;6.10;3.42;;;;;;;21.35;56.00;100804.09;1812778;78;21084;-72
2021/05/26 08:06:55;;;;;;;5.03;2.95;;;;;;;21.30;56.37;100807.32;1785823;78;21096;-71
2021/05/26 08:09:21;;;;;;;11.25;3.30;;;;;;;21.28;56.17;100809.84;1806557;78;21052;-73
2021/05/26 08:11:47;;;;;;;4.65;2.37;;;;;;;21.22;56.15;100807.39;1781738;78;21130;-74
2021/05/26 08:14:14;;;;;;;5.92;3.12;;;;;;;21.19;56.09;100806.94;1787394;79;21080;-77
2021/05/26 08:16:41;;;;;;;4.75;2.42;;;;;;;21.14;56.38;100811.48;1769803;79;21108;-72
2021/05/26 08:19:08;;;;;;;5.92;2.87;;;;;;;21.11;56.37;100811.84;1755027;79;21083;-73
2021/05/26 08:21:39;;;;;;;6.22;3.15;;;;;;;21.12;56.67;100810.84;1766664;79;21103;-73
2021/05/26 08:24:07;;;;;;;8.88;3.65;;;;;;;21.15;56.97;100820.67;1784332;78;21106;-73
2021/05/26 08:29:15;;;;;;;5.15;3.02;;;;;;;21.14;56.95;100820.85;1794753;77;23255;-70
2021/05/26 08:31:42;;;;;;;6.70;3.02;;;;;;;21.05;57.01;100820.10;1804712;78;20982;-72
2021/05/26 08:34:08;;;;;;;5.87;2.95;;;;;;;21.04;57.22;100818.42;1780460;78;21059;-74
2021/05/26 08:36:35;;;;;;;8.63;3.08;;;;;;;21.05;57.20;100816.61;1797568;77;21072;-70
2021/05/26 08:39:04;;;;;;;4.83;2.77;;;;;;;21.07;57.12;100813.23;1773711;78;21056;-74
2021/05/26 08:41:30;;;;;;;5.53;2.75;;;;;;;21.08;57.00;100819.75;1801478;78;21132;-76
2021/05/26 08:43:56;;;;;;;6.62;2.83;;;;;;;21.05;57.07;100818.77;1800168;78;21132;-70
2021/05/26 08:46:23;;;;;;;5.28;2.60;;;;;;;21.00;57.02;100813.61;1801114;78;21074;-70
2021/05/26 08:48:52;;;;;;;5.30;2.60;;;;;;;20.95;57.30;100804.81;1795143;78;21000;-73
2021/05/26 08:51:20;;;;;;;7.37;2.90;;;;;;;20.95;57.37;100807.48;1807418;78;21088;-70
2021/05/26 08:53:46;;;;;;;4.83;2.55;;;;;;;20.99;57.53;100806.62;1782937;78;21075;-71
2021/05/26 08:56:13;;;;;;;5.65;2.58;;;;;;;21.12;56.97;100806.31;1779682;78;21091;-72
2021/05/26 08:58:40;;;;;;;6.50;2.92;;;;;;;21.24;56.49;100804.02;1796766;78;21503;-72
2021/05/26 09:01:06;;;;;;;5.85;2.50;;;;;;;21.28;56.34;100804.00;1781261;78;21056;-74
2021/05/26 09:03:35;;;;;;;4.53;2.37;;;;;;;21.30;56.69;100801.11;1802357;77;21702;-75
2021/05/26 09:06:05;;;;;;;7.20;3.37;;;;;;;21.34;56.52;100801.91;1777457;78;21049;-72
2021/05/26 09:08:31;;;;;;;6.03;2.70;;;;;;;21.40;56.82;100815.09;1797797;78;21085;-71
2021/05/26 09:11:00;;;;;;;5.95;2.75;;;;;;;21.42;56.31;100813.56;1777894;78;21156;-72
2021/05/26 09:13:36;;;;;;;4.55;2.52;;;;;;;21.43;56.39;100813.88;1753483;80;21129;-70
2021/05/26 09:16:26;;;;;;;5.08;3.02;;;;;;;21.39;56.67;100817.42;1777909;78;21042;-73
2021/05/26 09:18:59;;;;;;;6.40;3.08;;;;;;;21.34;56.52;100823.84;1780117;78;21116;-73
2021/05/26 09:21:45;;;;;;;6.17;3.25;;;;;;;21.27;56.83;100818.91;1750860;80;21350;-71
2021/05/26 09:24:26;;;;;;;4.75;2.70;;;;;;;21.27;56.99;100822.91;1777280;78;21640;-74
2021/05/26 09:27:00;;;;;;;4.85;2.50;;;;;;;21.26;56.84;100820.72;1775936;79;21159;-72
2021/05/26 09:29:36;;;;;;;6.37;2.80;;;;;;;21.24;57.13;100821.94;1770158;80;21101;-72
2021/05/26 09:32:26;;;;;;;5.50;2.83;;;;;;;21.28;57.38;100813.86;1771209;79;21112;-74
2021/05/26 09:34:57;;;;;;;6.33;3.77;;;;;;;21.31;57.44;100821.01;1733197;79;21122;-73
2021/05/26 09:37:27;;;;;;;4.90;2.63;;;;;;;21.32;57.20;100819.18;1771351;79;21139;-73
2021/05/26 09:40:06;;;;;;;7.97;2.90;;;;;;;21.37;57.16;100817.27;1773094;79;21076;-72
2021/05/26 09:42:45;;;;;;;8.30;3.35;;;;;;;21.38;56.74;100828.31;1764862;79;21097;-74
2021/05/26 09:45:25;;;;;;;6.97;2.92;;;;;;;21.36;57.06;100831.69;1769353;79;22082;-71
2021/05/26 09:47:54;;;;;;;6.08;2.90;;;;;;;21.34;56.69;100833.20;1766298;79;21705;-75
2021/05/26 09:50:31;;;;;;;5.58;3.12;;;;;;;21.29;56.82;100831.59;1764653;80;21699;-74
2021/05/26 09:53:12;;;;;;;9.83;3.83;;;;;;;21.25;56.82;100837.81;1733772;79;21102;-78
2021/05/26 09:55:45;;;;;;;7.10;3.95;;;;;;;21.18;56.99;100841.39;1770921;79;21712;-72
2021/05/26 09:58:16;;;;;;;7.83;3.65;;;;;;;21.12;57.14;100840.28;1766658;79;21102;-73
2021/05/26 10:00:47;;;;;;;5.40;2.95;;;;;;;21.07;57.06;100846.68;1767261;79;21056;-71
2021/05/26 10:03:13;;;;;;;6.10;2.92;;;;;;;20.98;57.32;100843.25;1770594;79;21104;-72
2021/05/26 10:05:40;;;;;;;7.20;3.12;;;;;;;20.96;57.43;100844.77;1763919;79;21087;-74
2021/05/26 10:08:25;;;;;;;6.05;2.92;;;;;;;21.05;57.88;100855.40;1766024;79;21076;-73
2021/05/26 10:11:04;;;;;;;5.00;2.95;;;;;;;21.07;58.10;100850.69;1764860;80;21460;-73
2021/05/26 10:13:33;;;;;;;4.78;3.05;;;;;;;21.05;58.15;100856.73;1770115;79;21727;-73
2021/05/26 10:15:59;;;;;;;5.87;3.50;;;;;;;21.01;58.21;100854.08;1772779;79;21115;-71
2021/05/26 10:18:30;;;;;;;8.28;3.25;;;;;;;20.95;58.30;100855.13;1761850;79;21101;-72
2021/05/26 10:20:55;;;;;;;6.62;3.10;;;;;;;20.95;58.20;100856.98;1764260;79;21095;-73
2021/05/26 10:23:22;;;;;;;8.98;3.55;;;;;;;20.89;58.34;100843.80;1767015;79;21104;-71
2021/05/26 10:25:53;;;;;;;6.03;3.58;;;;;;;20.87;58.54;100855.18;1769548;79;21094;-73
2021/05/26 10:28:33;;;;;;;7.60;3.30;;;;;;;20.82;58.39;100856.23;1770256;79;21101;-72
2021/05/26 10:31:02;;;;;;;7.17;3.80;;;;;;;20.78;58.56;100857.61;1774555;79;21352;-75
2021/05/26 10:33:49;;;;;;;6.55;3.67;;;;;;;20.74;58.40;100855.77;1772899;79;21190;-73
2021/05/26 10:36:17;;;;;;;5.55;3.47;;;;;;;20.68;58.57;100851.63;1774018;78;21070;-73
2021/05/26 10:39:32;;;;;;;6.50;3.80;;;;;;;20.70;58.90;100851.80;1791677;77;22343;-72
2021/05/26 10:42:01;;;;;;;7.75;3.87;;;;;;;20.70;58.81;100853.65;1762949;78;20992;-73
2021/05/26 10:45:05;;;;;;;5.75;3.25;;;;;;;20.69;59.01;100854.13;1770465;78;21107;-74
2021/05/26 10:47:46;;;;;;;5.58;3.05;;;;;;;20.69;59.34;100856.81;1762993;78;21037;-73
2021/05/26 10:50:26;;;;;;;5.62;3.35;;;;;;;20.71;59.51;100860.64;1740260;80;21019;-73
2021/05/26 10:53:02;;;;;;;8.18;3.47;;;;;;;20.70;59.48;100859.00;1734820;80;21080;-72
2021/05/26 10:55:40;;;;;;;6.28;3.27;;;;;;;20.67;59.57;100859.35;1765758;80;20981;-75
2021/05/26 10:58:31;;;;;;;7.05;3.83;;;;;;;20.59;59.61;100857.03;1756633;79;21040;-72
2021/05/26 11:01:04;;;;;;;6.15;3.30;;;;;;;20.54;60.13;100857.22;1765181;79;21076;-72
2021/05/26 11:03:43;;;;;;;5.62;3.15;;;;;;;20.57;60.58;100859.55;1773774;80;21562;-75
2021/05/26 11:06:30;;;;;;;11.43;3.22;;;;;;;20.69;60.04;100858.66;1766209;78;21079;-73
2021/05/26 11:08:58;;;;;;;7.50;3.42;;;;;;;20.79;59.75;100855.24;1749266;78;21143;-72
2021/05/26 11:11:40;;;;;;;8.03;3.10;;;;;;;20.83;59.60;100852.55;1693908;80;21095;-73
2021/05/26 11:14:17;;;;;;;7.03;4.30;;;;;;;20.88;59.67;100848.84;1716688;80;20918;-73
2021/05/26 11:16:51;;;;;;;7.03;3.90;;;;;;;20.96;59.35;100846.09;1741957;80;21596;-75
2021/05/26 11:19:24;;;;;;;7.78;3.55;;;;;;;21.07;59.40;100846.68;1709321;81;21111;-73
2021/05/26 11:22:02;;;;;;;5.03;3.20;;;;;;;21.15;59.24;100846.09;1742203;80;21068;-75
2021/05/26 11:24:33;;;;;;;5.83;3.85;;;;;;;21.24;59.01;100850.86;1745585;81;21096;-73
2021/05/26 11:27:00;;;;;;;5.55;3.67;;;;;;;21.29;59.01;100844.97;1744989;80;21557;-72
2021/05/26 11:29:35;;;;;;;6.67;4.00;;;;;;;21.29;58.90;100845.79;1716707;81;20912;-72
2021/05/26 11:32:17;;;;;;;5.72;3.50;;;;;;;21.29;59.13;100843.63;1749864;80;20911;-73
2021/05/26 11:34:46;;;;;;;6.62;3.72;;;;;;;21.27;59.36;100847.83;1713582;80;20949;-74
2021/05/26 11:37:25;;;;;;;9.80;4.33;;;;;;;21.26;60.04;100846.66;1714926;80;21001;-72
2021/05/26 11:39:51;;;;;;;7.97;4.10;;;;;;;21.25;60.33;100849.00;1745453;80;20989;-73
2021/05/26 11:42:22;;;;;;;6.03;3.62;;;;;;;21.20;60.61;100844.70;1741741;80;20938;-71